Time;durP1;ratioP1;P1;durP2;ratioP2;P2;SDS_P1;SDS_P2;PMS_P1;PMS_P2;Temp;Humidity;BMP_temperature;BMP_pressure;BME280_temperature;BME280_humidity;BME280_pressure;Samples;Min_cycle;Max_cycle;Signal;HPM_P1;HPM_P2
2023/12/05 00:01:11;;;;;;;32.90;17.20;;;;;;;-5.26;85.01;99896.52;218352;1259;141401;-71
2023/12/05 00:06:19;;;;;;;39.50;21.00;;;;;;;-5.28;84.90;99902.96;218720;1255;140830;-69
2023/12/05 00:11:27;;;;;;;32.40;17.80;;;;;;;-5.30;84.80;99897.07;219072;1256;141238;-69
2023/12/05 00:16:33;;;;;;;42.30;23.30;;;;;;;-5.30;84.82;99887.88;218329;1257;141560;-71
2023/12/05 00:21:38;;;;;;;38.40;23.50;;;;;;;-5.31;84.79;99883.40;218869;1256;142289;-71
2023/12/05 00:26:44;;;;;;;36.50;19.40;;;;;;;-5.36;84.61;99878.84;218918;1256;140574;-73
2023/12/05 00:31:50;;;;;;;51.90;24.70;;;;;;;-5.43;84.52;99867.44;219936;1256;140615;-72
2023/12/05 00:36:55;;;;;;;41.60;22.20;;;;;;;-5.41;84.97;99861.23;219737;1256;141079;-72
2023/12/05 00:42:01;;;;;;;37.10;20.30;;;;;;;-5.42;84.71;99852.52;218572;1256;140388;-74
2023/12/05 00:47:07;;;;;;;38.80;20.70;;;;;;;-5.43;84.84;99848.73;218206;1257;140345;-68
2023/12/05 00:52:13;;;;;;;42.90;22.00;;;;;;;-5.42;84.82;99853.38;218944;1257;140481;-69
2023/12/05 00:57:19;;;;;;;48.00;22.70;;;;;;;-5.42;84.53;99851.61;217970;1259;140465;-73
2023/12/05 01:02:26;;;;;;;35.60;15.90;;;;;;;-5.43;84.44;99852.45;219255;1256;140858;-70
2023/12/05 01:07:31;;;;;;;37.50;18.80;;;;;;;-5.50;84.12;99847.33;219032;1257;140632;-71
2023/12/05 01:12:38;;;;;;;41.90;19.70;;;;;;;-5.56;84.16;99847.96;219094;1256;140829;-69
2023/12/05 01:17:45;;;;;;;41.00;18.20;;;;;;;-5.62;84.34;99851.11;218206;1258;142528;-69
2023/12/05 01:22:50;;;;;;;45.00;23.60;;;;;;;-5.68;83.99;99847.82;218350;1257;140389;-71
2023/12/05 01:27:58;;;;;;;32.60;15.20;;;;;;;-5.74;84.15;99848.33;218168;1258;140198;-68
2023/12/05 01:33:04;;;;;;;37.50;21.20;;;;;;;-5.85;84.17;99851.31;218362;1257;140503;-69
2023/12/05 01:38:09;;;;;;;40.10;21.20;;;;;;;-5.92;84.24;99853.62;217993;1257;140739;-67
2023/12/05 01:43:16;;;;;;;84.60;34.80;;;;;;;-6.05;83.82;99849.91;217976;1258;140575;-73
2023/12/05 01:48:22;;;;;;;47.60;24.60;;;;;;;-6.17;84.05;99844.84;218615;1256;140313;-71
2023/12/05 01:53:29;;;;;;;47.60;23.90;;;;;;;-6.23;84.16;99833.40;218463;1257;140483;-71
2023/12/05 01:58:37;;;;;;;47.80;21.00;;;;;;;-6.25;84.24;99833.71;218868;1257;140736;-71
2023/12/05 02:03:46;;;;;;;49.30;23.00;;;;;;;-6.26;84.14;99822.92;218442;1257;140805;-73
2023/12/05 02:08:53;;;;;;;45.90;21.90;;;;;;;-6.24;84.37;99817.91;219444;1256;140748;-70
2023/12/05 02:13:59;;;;;;;45.20;22.10;;;;;;;-6.23;84.41;99822.50;218663;1257;140400;-69
2023/12/05 02:19:18;;;;;;;36.70;21.00;;;;;;;-6.24;84.45;99815.67;218963;1256;140368;-70
2023/12/05 02:24:49;;;;;;;38.20;21.30;;;;;;;-6.25;84.44;99819.33;218764;1257;140579;-69
2023/12/05 02:29:55;;;;;;;33.70;18.10;;;;;;;-6.24;84.47;99815.78;219163;1256;141648;-71
2023/12/05 02:35:05;;;;;;;50.70;23.20;;;;;;;-6.24;84.36;99816.88;219244;1257;141309;-71
2023/12/05 02:40:26;;;;;;;35.10;19.90;;;;;;;-6.25;84.23;99816.08;219221;1257;141563;-70
2023/12/05 02:45:31;;;;;;;41.20;18.10;;;;;;;-6.26;84.77;99809.08;218395;1257;141027;-68
2023/12/05 02:50:36;;;;;;;35.80;19.00;;;;;;;-6.26;84.86;99801.27;218421;1256;142246;-70
2023/12/05 02:55:42;;;;;;;37.10;18.00;;;;;;;-6.21;85.03;99798.30;218642;1258;140631;-68
2023/12/05 03:00:48;;;;;;;34.90;17.80;;;;;;;-6.23;84.91;99796.67;218682;1257;141025;-73
2023/12/05 03:05:56;;;;;;;25.90;13.50;;;;;;;-6.23;84.75;99797.17;218377;1258;140606;-72
2023/12/05 03:11:03;;;;;;;34.90;17.70;;;;;;;-6.20;85.11;99793.36;218301;1259;141516;-72
2023/12/05 03:16:14;;;;;;;35.90;18.40;;;;;;;-6.17;85.17;99802.40;218802;1257;141075;-70
2023/12/05 03:21:20;;;;;;;36.30;18.00;;;;;;;-6.14;85.22;99802.73;217882;1257;159867;-70
2023/12/05 03:26:27;;;;;;;62.10;26.50;;;;;;;-6.12;85.28;99802.69;218724;1259;141268;-67
2023/12/05 03:31:39;;;;;;;37.00;16.70;;;;;;;-6.07;85.24;99798.84;218867;1257;140045;-69
2023/12/05 03:36:45;;;;;;;35.40;16.40;;;;;;;-6.06;85.18;99794.77;218601;1257;141497;-70
2023/12/05 03:41:50;;;;;;;33.30;16.60;;;;;;;-6.09;85.06;99790.91;217833;1257;140685;-70
2023/12/05 03:46:56;;;;;;;33.70;17.30;;;;;;;-6.10;84.89;99793.72;218341;1258;140712;-69
2023/12/05 03:52:04;;;;;;;62.20;24.60;;;;;;;-6.14;84.74;99791.45;218612;1255;140478;-71
2023/12/05 03:57:11;;;;;;;53.50;24.60;;;;;;;-6.17;84.92;99791.05;218443;1259;142639;-69
2023/12/05 04:02:17;;;;;;;68.00;32.10;;;;;;;-6.17;85.04;99795.55;219272;1256;140422;-70
2023/12/05 04:07:23;;;;;;;40.10;19.30;;;;;;;-6.14;85.15;99791.95;220256;1255;141962;-71
2023/12/05 04:12:28;;;;;;;31.50;16.30;;;;;;;-6.12;85.15;99786.11;220203;1256;140747;-69
2023/12/05 04:17:34;;;;;;;29.40;15.40;;;;;;;-6.10;85.15;99780.22;220049;1255;140973;-68
2023/12/05 04:22:39;;;;;;;23.00;15.00;;;;;;;-6.09;84.86;99777.05;220518;1256;141351;-69
2023/12/05 04:27:45;;;;;;;29.10;15.70;;;;;;;-6.14;84.56;99772.27;220382;1257;141060;-67
2023/12/05 04:32:51;;;;;;;32.20;16.40;;;;;;;-6.19;84.65;99769.04;220070;1254;142798;-70
2023/12/05 04:37:58;;;;;;;34.60;17.00;;;;;;;-6.19;85.01;99764.89;219336;1257;141393;-69
2023/12/05 04:43:03;;;;;;;34.30;16.50;;;;;;;-6.18;84.58;99762.72;218254;1258;140993;-69
2023/12/05 04:48:08;;;;;;;22.60;13.40;;;;;;;-6.30;84.15;99760.77;218973;1257;142550;-69
2023/12/05 04:53:13;;;;;;;36.00;18.10;;;;;;;-6.38;84.22;99763.21;218294;1258;141448;-67
2023/12/05 04:58:19;;;;;;;34.60;19.10;;;;;;;-6.44;84.40;99769.45;217993;1257;140881;-67
2023/12/05 05:03:23;;;;;;;43.50;20.00;;;;;;;-6.52;84.51;99774.14;219387;1257;141265;-68
2023/12/05 05:08:30;;;;;;;47.10;22.50;;;;;;;-6.57;84.45;99772.65;217947;1258;141353;-70
2023/12/05 05:13:36;;;;;;;42.80;19.90;;;;;;;-6.64;84.25;99770.30;219025;1257;141085;-67
2023/12/05 05:18:54;;;;;;;32.60;16.60;;;;;;;-6.80;83.67;99763.70;218163;1258;140596;-68
2023/12/05 05:23:59;;;;;;;36.00;17.20;;;;;;;-7.01;83.41;99762.78;218133;1256;140849;-67
2023/12/05 05:29:04;;;;;;;44.20;20.00;;;;;;;-7.16;83.22;99762.61;217809;1259;140597;-68
2023/12/05 05:34:13;;;;;;;46.80;23.90;;;;;;;-7.35;83.23;99763.59;218219;1257;141395;-68
2023/12/05 05:39:20;;;;;;;32.40;15.70;;;;;;;-7.45;83.76;99755.77;217713;1256;140325;-68
2023/12/05 05:44:25;;;;;;;42.40;21.60;;;;;;;-7.51;83.63;99756.59;218319;1257;141053;-67
2023/12/05 05:49:30;;;;;;;48.90;20.50;;;;;;;-7.58;83.73;99754.03;218327;1257;140589;-67
2023/12/05 05:54:36;;;;;;;44.70;24.10;;;;;;;-7.66;83.83;99752.90;220300;1257;141144;-66
2023/12/05 05:59:45;;;;;;;49.90;23.30;;;;;;;-7.63;84.05;99744.38;220320;1259;141131;-66
2023/12/05 06:04:53;;;;;;;44.10;21.10;;;;;;;-7.62;83.76;99742.92;219498;1259;142420;-67
2023/12/05 06:10:00;;;;;;;44.30;22.50;;;;;;;-7.70;83.38;99740.67;218859;1259;142570;-68
2023/12/05 06:15:06;;;;;;;47.30;23.40;;;;;;;-7.75;83.65;99749.70;218515;1257;140625;-66
2023/12/05 06:20:11;;;;;;;58.40;28.50;;;;;;;-7.76;83.75;99750.45;219255;1257;141949;-66
2023/12/05 06:25:16;;;;;;;50.30;25.20;;;;;;;-7.77;83.60;99751.04;219880;1255;140797;-66
2023/12/05 06:30:23;;;;;;;60.80;29.60;;;;;;;-7.79;83.59;99758.91;219409;1257;141140;-66
2023/12/05 06:35:30;;;;;;;;;;;;;;;-7.87;83.27;99763.33;213161;1257;10140684;-66
2023/12/05 06:40:35;;;;;;;54.30;28.20;;;;;;;-7.97;83.23;99765.84;220255;1258;127492;-66
2023/12/05 06:45:40;;;;;;;47.50;25.90;;;;;;;-8.04;82.91;99762.04;219604;1258;142756;-69
2023/12/05 06:50:47;;;;;;;49.50;24.10;;;;;;;-8.12;82.78;99757.89;218314;1257;140689;-67
2023/12/05 06:55:52;;;;;;;47.60;23.50;;;;;;;-8.18;82.83;99758.30;219539;1257;140490;-67
2023/12/05 07:00:58;;;;;;;62.10;32.30;;;;;;;-8.23;82.77;99753.11;219186;1258;140112;-67
2023/12/05 07:06:05;;;;;;;55.20;28.20;;;;;;;-8.22;83.00;99747.87;218944;1257;140942;-66
2023/12/05 07:11:10;;;;;;;48.80;24.90;;;;;;;-8.18;83.09;99744.48;218542;1256;140574;-66
2023/12/05 07:16:16;;;;;;;55.10;25.70;;;;;;;-8.14;83.16;99745.02;218386;1258;141195;-66
2023/12/05 07:21:21;;;;;;;57.80;25.80;;;;;;;-8.04;83.43;99749.81;218346;1256;141009;-67
2023/12/05 07:26:27;;;;;;;47.70;26.00;;;;;;;-7.98;83.24;99744.38;218152;1257;140409;-66
2023/12/05 07:31:32;;;;;;;61.30;30.10;;;;;;;-7.96;83.31;99743.46;219441;1257;140659;-67
2023/12/05 07:36:41;;;;;;;71.50;31.10;;;;;;;-7.86;83.52;99740.61;218200;1259;140708;-66
2023/12/05 07:41:46;;;;;;;58.60;31.10;;;;;;;-7.77;83.68;99740.31;217894;1258;140635;-65
2023/12/05 07:46:51;;;;;;;83.00;35.90;;;;;;;-7.67;83.64;99741.61;219805;1257;140722;-66
2023/12/05 07:51:55;;;;;;;111.60;41.00;;;;;;;-7.56;83.67;99740.36;218565;1257;140499;-66
2023/12/05 07:57:03;;;;;;;76.60;40.90;;;;;;;-7.44;83.64;99737.39;219167;1257;140700;-65
2023/12/05 08:02:07;;;;;;;74.10;36.40;;;;;;;-7.29;83.81;99732.76;218035;1260;140564;-65
2023/12/05 08:07:12;;;;;;;66.20;34.80;;;;;;;-7.12;83.89;99733.42;219338;1254;140590;-66
2023/12/05 08:12:17;;;;;;;64.20;32.60;;;;;;;-6.93;84.18;99732.41;220351;1257;140499;-66
2023/12/05 08:17:22;;;;;;;66.10;33.30;;;;;;;-6.72;84.10;99738.00;220274;1258;140915;-65
2023/12/05 08:22:26;;;;;;;75.60;37.10;;;;;;;-6.53;84.04;99741.95;220360;1258;140776;-67
2023/12/05 08:27:32;;;;;;;83.30;34.00;;;;;;;-6.34;83.73;99748.38;220353;1258;141187;-66
2023/12/05 08:32:37;;;;;;;52.60;22.90;;;;;;;-6.15;83.80;99746.04;220499;1257;140741;-68
2023/12/05 08:37:42;;;;;;;48.50;26.10;;;;;;;-5.92;84.15;99754.46;220281;1257;141641;-68
2023/12/05 08:42:47;;;;;;;47.60;23.60;;;;;;;-5.65;84.40;99747.80;219804;1260;141351;-69
2023/12/05 08:47:55;;;;;;;42.70;22.00;;;;;;;-5.41;84.23;99754.06;217832;1261;140495;-69
2023/12/05 08:53:02;;;;;;;57.50;30.90;;;;;;;-5.20;84.08;99753.06;218169;1257;141558;-68
2023/12/05 08:58:08;;;;;;;53.00;24.60;;;;;;;-5.01;84.07;99754.04;218344;1260;141093;-68
2023/12/05 09:03:14;;;;;;;61.30;31.50;;;;;;;-4.83;83.92;99752.91;218355;1257;141301;-70
2023/12/05 09:08:18;;;;;;;58.70;29.70;;;;;;;-4.66;83.88;99746.94;218532;1260;140529;-67
2023/12/05 09:13:23;;;;;;;57.80;28.40;;;;;;;-4.50;83.79;99738.45;218206;1259;141305;-70
2023/12/05 09:18:28;;;;;;;51.40;26.70;;;;;;;-4.30;83.59;99742.11;218648;1257;141052;-72
2023/12/05 09:23:33;;;;;;;46.80;25.60;;;;;;;-4.12;83.69;99745.83;218544;1260;141461;-68
2023/12/05 09:28:38;;;;;;;54.30;26.80;;;;;;;-3.96;83.43;99744.81;218619;1257;140264;-70
2023/12/05 09:33:43;;;;;;;53.20;28.10;;;;;;;-3.80;83.42;99739.29;218724;1256;142280;-68
2023/12/05 09:38:48;;;;;;;37.90;20.50;;;;;;;-3.66;83.11;99736.88;218652;1259;141200;-68
2023/12/05 09:43:53;;;;;;;43.40;25.90;;;;;;;-3.55;82.94;99733.69;218608;1258;140471;-67
2023/12/05 09:49:00;;;;;;;52.60;25.70;;;;;;;-3.46;82.47;99732.83;218259;1260;142746;-69
2023/12/05 09:54:06;;;;;;;47.90;27.50;;;;;;;-3.42;82.61;99718.52;218801;1256;140818;-71
2023/12/05 09:59:16;;;;;;;47.10;26.80;;;;;;;-3.34;82.27;99707.15;218544;1259;141308;-69
2023/12/05 10:04:22;;;;;;;50.50;25.20;;;;;;;-3.08;82.74;99707.29;218804;1257;141987;-69
2023/12/05 10:09:28;;;;;;;39.70;21.60;;;;;;;-2.83;82.58;99705.21;219105;1257;140712;-69
2023/12/05 10:14:33;;;;;;;35.80;21.40;;;;;;;-2.49;82.71;99701.48;218851;1259;140593;-70
2023/12/05 10:19:39;;;;;;;35.30;20.90;;;;;;;-2.22;82.17;99695.95;219115;1257;142830;-71
2023/12/05 10:24:45;;;;;;;43.10;22.90;;;;;;;-2.07;81.66;99696.00;219230;1255;140605;-69
2023/12/05 10:29:50;;;;;;;39.10;21.20;;;;;;;-1.85;81.79;99696.55;218682;1256;140392;-68
2023/12/05 10:35:01;;;;;;;40.80;23.00;;;;;;;-1.63;81.19;99694.30;219496;1256;141677;-68
2023/12/05 10:40:06;;;;;;;37.10;18.60;;;;;;;-1.54;80.65;99682.04;218581;1258;140465;-68
2023/12/05 10:45:12;;;;;;;37.90;21.10;;;;;;;-1.52;80.06;99682.56;218649;1254;140460;-69
2023/12/05 10:50:16;;;;;;;42.90;22.80;;;;;;;-1.77;79.39;99674.51;219559;1257;140935;-68
2023/12/05 10:55:25;;;;;;;43.40;23.20;;;;;;;-2.23;78.98;99674.83;219751;1257;141392;-72
2023/12/05 11:00:31;;;;;;;54.00;24.80;;;;;;;-2.58;78.99;99668.79;218034;1257;140255;-69
2023/12/05 11:05:36;;;;;;;40.00;22.30;;;;;;;-2.68;79.39;99665.41;219214;1254;140470;-70
2023/12/05 11:10:42;;;;;;;51.10;24.70;;;;;;;-2.72;79.56;99662.64;218401;1257;140068;-73
2023/12/05 11:15:49;;;;;;;49.60;26.80;;;;;;;-2.63;79.72;99658.50;218469;1259;140998;-74
2023/12/05 11:21:22;;;;;;;51.00;27.20;;;;;;;-2.60;79.48;99655.11;217810;1257;140084;-73
2023/12/05 11:26:51;;;;;;;48.80;25.70;;;;;;;-2.33;80.17;99649.22;218838;1256;141774;-71
2023/12/05 11:32:12;;;;;;;48.30;25.70;;;;;;;-2.08;80.05;99643.67;218803;1254;140808;-72
2023/12/05 11:37:39;;;;;;;32.70;15.90;;;;;;;-1.90;79.87;99642.91;218411;1254;141164;-71
2023/12/05 11:43:12;;;;;;;47.60;26.10;;;;;;;-1.74;79.36;99649.79;218424;1259;141773;-70
2023/12/05 11:48:25;;;;;;;37.70;21.40;;;;;;;-1.56;79.06;99650.21;218771;1254;140331;-70
2023/12/05 11:53:30;;;;;;;37.10;21.90;;;;;;;-1.69;78.71;99638.45;218672;1259;140281;-70
2023/12/05 11:58:35;;;;;;;46.70;26.10;;;;;;;-1.69;78.73;99635.27;218122;1256;140567;-71
2023/12/05 12:03:58;;;;;;;52.70;27.10;;;;;;;-1.59;78.77;99637.08;219181;1254;140418;-70
2023/12/05 12:09:05;;;;;;;34.10;20.20;;;;;;;-1.54;78.82;99635.66;219463;1254;140540;-72
2023/12/05 12:14:18;;;;;;;41.80;25.40;;;;;;;-1.66;78.09;99639.40;218866;1257;140504;-70
2023/12/05 12:19:25;;;;;;;37.40;19.90;;;;;;;-1.87;78.16;99638.44;218456;1259;140219;-73
2023/12/05 12:24:33;;;;;;;41.40;22.70;;;;;;;-2.14;77.95;99643.31;220771;1256;140813;-73
2023/12/05 12:29:38;;;;;;;41.40;23.80;;;;;;;-2.26;78.04;99645.61;219519;1257;141168;-71
2023/12/05 12:34:43;;;;;;;37.80;21.70;;;;;;;-2.31;78.26;99641.06;219011;1256;139939;-74
2023/12/05 12:39:50;;;;;;;45.30;23.30;;;;;;;-2.30;78.45;99639.05;219437;1257;140743;-71
2023/12/05 12:44:55;;;;;;;52.40;29.20;;;;;;;-2.29;78.23;99643.07;218383;1257;140824;-71
2023/12/05 12:50:02;;;;;;;61.40;32.60;;;;;;;-2.39;78.05;99640.59;219195;1256;140407;-73
2023/12/05 12:55:08;;;;;;;88.20;41.10;;;;;;;-2.42;78.27;99637.38;218326;1258;141132;-72
2023/12/05 13:00:17;;;;;;;58.90;34.40;;;;;;;-2.41;78.33;99634.48;219519;1257;140137;-73
2023/12/05 13:05:41;;;;;;;53.80;28.10;;;;;;;-2.53;77.88;99627.02;218664;1259;141075;-71
2023/12/05 13:10:46;;;;;;;49.40;28.70;;;;;;;-2.69;77.75;99625.00;218495;1256;140337;-70
2023/12/05 13:15:52;;;;;;;50.30;27.60;;;;;;;-2.84;77.98;99622.14;218635;1256;140130;-69
2023/12/05 13:20:58;;;;;;;50.20;28.10;;;;;;;-2.98;77.95;99621.64;218350;1257;140417;-74
2023/12/05 13:26:06;;;;;;;53.90;32.00;;;;;;;-3.13;78.04;99622.20;219221;1256;142273;-63
2023/12/05 13:31:12;;;;;;;45.00;27.10;;;;;;;-3.26;78.24;99623.98;218841;1259;142681;-69
2023/12/05 13:36:17;;;;;;;56.30;29.80;;;;;;;-3.31;78.40;99622.79;218217;1256;142613;-70
2023/12/05 13:41:23;;;;;;;58.80;32.10;;;;;;;-3.36;78.59;99622.88;218679;1256;140204;-72
2023/12/05 13:46:29;;;;;;;68.30;35.40;;;;;;;-3.31;78.99;99630.58;218050;1259;141365;-70
2023/12/05 13:51:36;;;;;;;68.80;33.80;;;;;;;-3.28;78.93;99634.65;218530;1259;140283;-68
2023/12/05 13:56:43;;;;;;;83.50;43.60;;;;;;;-3.26;79.35;99641.20;218939;1256;140137;-67
2023/12/05 14:01:47;;;;;;;104.70;53.20;;;;;;;-3.23;79.21;99634.80;218711;1259;141408;-71
2023/12/05 14:06:54;;;;;;;84.30;43.80;;;;;;;-3.23;79.11;99641.81;219430;1254;140286;-71
2023/12/05 14:11:59;;;;;;;77.30;39.00;;;;;;;-3.28;79.02;99646.94;219158;1256;140996;-68
2023/12/05 14:17:04;;;;;;;71.20;37.20;;;;;;;-3.38;78.84;99654.70;218146;1256;140871;-69
2023/12/05 14:22:08;;;;;;;72.00;35.70;;;;;;;-3.47;79.07;99658.09;219694;1256;140508;-71
2023/12/05 14:27:12;;;;;;;67.90;34.90;;;;;;;-3.54;79.13;99662.84;219655;1256;140537;-76
2023/12/05 14:32:16;;;;;;;69.70;37.90;;;;;;;-3.61;79.16;99667.73;219611;1259;151718;-73
2023/12/05 14:37:21;;;;;;;62.80;33.10;;;;;;;-3.71;78.96;99673.91;219544;1256;141044;-71
2023/12/05 14:42:26;;;;;;;60.50;36.50;;;;;;;-3.82;79.09;99679.61;219881;1256;141018;-70
2023/12/05 14:47:30;;;;;;;73.30;37.60;;;;;;;-3.94;78.85;99675.67;218955;1256;140669;-69
2023/12/05 14:52:34;;;;;;;63.40;35.00;;;;;;;-4.06;79.02;99678.39;219346;1256;140594;-67
2023/12/05 14:57:38;;;;;;;64.50;35.00;;;;;;;-4.21;78.93;99680.17;218879;1256;140374;-71
2023/12/05 15:02:45;;;;;;;57.60;29.10;;;;;;;-4.32;79.29;99677.55;218410;1257;140755;-68
2023/12/05 15:07:50;;;;;;;66.00;31.90;;;;;;;-4.39;79.40;99677.84;218781;1255;140347;-70
2023/12/05 15:12:59;;;;;;;75.50;35.50;;;;;;;-4.42;79.56;99672.34;218363;1256;140357;-68
2023/12/05 15:18:05;;;;;;;52.70;30.30;;;;;;;-4.43;79.91;99670.91;218332;1256;140527;-66
2023/12/05 15:23:11;;;;;;;66.60;37.90;;;;;;;-4.53;79.64;99678.59;218980;1255;140680;-68
2023/12/05 15:28:18;;;;;;;68.30;35.40;;;;;;;-4.64;79.54;99678.58;218465;1255;140309;-72
2023/12/05 15:33:22;;;;;;;68.50;37.50;;;;;;;-4.72;79.90;99684.38;218326;1259;140224;-69
2023/12/05 15:38:27;;;;;;;80.00;39.40;;;;;;;-4.80;79.91;99686.57;218644;1255;164181;-71
2023/12/05 15:43:31;;;;;;;76.50;39.30;;;;;;;-4.83;80.20;99684.30;218618;1256;140566;-68
2023/12/05 15:48:37;;;;;;;82.40;42.80;;;;;;;-4.86;80.15;99680.19;218895;1257;140630;-67
2023/12/05 15:53:48;;;;;;;97.00;47.10;;;;;;;-4.83;80.55;99682.16;219049;1258;140684;-65
2023/12/05 15:58:55;;;;;;;71.70;36.90;;;;;;;-4.78;80.66;99685.39;218417;1256;140631;-67
2023/12/05 16:03:59;;;;;;;81.30;41.40;;;;;;;-4.83;80.25;99690.02;220179;1259;140497;-68
2023/12/05 16:09:06;;;;;;;85.60;43.10;;;;;;;-4.92;80.28;99693.05;219440;1257;140462;-67
2023/12/05 16:14:10;;;;;;;89.50;47.30;;;;;;;-4.97;80.53;99694.74;219193;1256;140566;-69
2023/12/05 16:19:13;;;;;;;86.60;46.10;;;;;;;-5.02;80.57;99694.63;219260;1257;141797;-68
2023/12/05 16:24:17;;;;;;;94.90;47.00;;;;;;;-5.06;80.56;99691.16;219859;1255;143837;-69
2023/12/05 16:29:22;;;;;;;82.40;41.70;;;;;;;-5.15;80.24;99691.11;218719;1254;143048;-71
2023/12/05 16:34:29;;;;;;;81.30;45.60;;;;;;;-5.28;79.99;99696.66;219806;1254;141517;-70
2023/12/05 16:39:34;;;;;;;137.70;59.90;;;;;;;-5.36;80.45;99687.61;218636;1255;140223;-68
2023/12/05 16:44:46;;;;;;;95.10;49.30;;;;;;;-5.45;80.18;99681.63;218263;1256;140416;-68
2023/12/05 16:49:49;;;;;;;90.40;45.50;;;;;;;-5.57;80.15;99685.53;220665;1256;141722;-70
2023/12/05 16:54:56;;;;;;;88.80;42.90;;;;;;;-5.73;79.95;99693.61;217959;1258;140973;-68
2023/12/05 17:00:00;;;;;;;100.10;46.40;;;;;;;-5.85;80.25;99691.58;219006;1256;140445;-69
2023/12/05 17:05:05;;;;;;;109.50;49.90;;;;;;;-5.89;80.56;99696.21;218945;1255;140213;-66
2023/12/05 17:10:10;;;;;;;96.80;45.40;;;;;;;-5.92;80.56;99695.13;218932;1257;140891;-68
2023/12/05 17:15:14;;;;;;;88.80;41.00;;;;;;;-5.94;80.70;99693.91;217779;1255;140367;-69
2023/12/05 17:20:18;;;;;;;92.40;39.50;;;;;;;-5.96;80.94;99693.60;218125;1255;140999;-68
2023/12/05 17:25:23;;;;;;;73.30;34.90;;;;;;;-5.97;81.03;99694.91;218359;1256;140468;-70
2023/12/05 17:30:27;;;;;;;69.70;31.10;;;;;;;-5.99;81.37;99694.14;219204;1254;140691;-70
2023/12/05 17:35:31;;;;;;;66.90;34.00;;;;;;;-5.97;81.63;99694.00;218288;1257;140297;-70
2023/12/05 17:40:35;;;;;;;58.10;28.40;;;;;;;-5.94;81.77;99697.38;218462;1256;140639;-71
2023/12/05 17:45:40;;;;;;;62.40;31.10;;;;;;;-5.95;81.79;99691.58;218461;1256;142373;-69
2023/12/05 17:50:44;;;;;;;60.00;31.30;;;;;;;-5.92;82.10;99695.61;219630;1254;142389;-69
2023/12/05 17:55:49;;;;;;;71.90;33.90;;;;;;;-5.85;82.47;99692.95;219515;1254;141044;-69
2023/12/05 18:00:53;;;;;;;32.70;19.90;;;;;;;-5.85;82.19;99685.29;218959;1255;140462;-69
2023/12/05 18:05:58;;;;;;;62.30;30.80;;;;;;;-5.87;82.23;99688.67;219508;1257;140748;-67
2023/12/05 18:11:02;;;;;;;77.30;38.40;;;;;;;-5.85;82.66;99685.13;217840;1258;140593;-65
2023/12/05 18:16:09;;;;;;;122.70;44.50;;;;;;;-5.78;82.79;99688.13;220453;1255;142486;-67
2023/12/05 18:21:18;;;;;;;75.80;37.60;;;;;;;-5.71;83.11;99687.06;220584;1256;141162;-66
2023/12/05 18:26:22;;;;;;;88.20;34.40;;;;;;;-5.59;83.46;99683.59;220541;1256;141477;-68
2023/12/05 18:31:26;;;;;;;82.50;35.00;;;;;;;-5.45;83.68;99683.77;219018;1254;141394;-65
2023/12/05 18:36:31;;;;;;;96.80;38.60;;;;;;;-5.33;83.63;99687.07;219741;1256;239014;-69
2023/12/05 18:41:36;;;;;;;120.50;44.90;;;;;;;-5.24;83.54;99685.02;219096;1256;141439;-69
2023/12/05 18:46:41;;;;;;;73.10;34.40;;;;;;;-5.15;83.84;99679.12;218943;1256;140668;-69
2023/12/05 18:51:45;;;;;;;58.20;29.30;;;;;;;-5.04;84.08;99677.89;218654;1256;140762;-69
2023/12/05 18:56:50;;;;;;;65.30;35.90;;;;;;;-4.96;84.04;99682.15;219405;1257;141519;-68
2023/12/05 19:01:54;;;;;;;58.70;29.60;;;;;;;-4.90;84.08;99688.33;219957;1256;141180;-69
2023/12/05 19:07:00;;;;;;;67.00;31.30;;;;;;;-4.86;84.21;99690.05;218501;1257;140897;-68
2023/12/05 19:12:07;;;;;;;56.10;25.50;;;;;;;-4.81;84.09;99694.09;218907;1257;139934;-67
2023/12/05 19:17:11;;;;;;;56.90;29.50;;;;;;;-4.79;84.13;99697.08;218633;1257;141866;-67
2023/12/05 19:22:16;;;;;;;62.10;30.60;;;;;;;-4.78;84.25;99699.70;218453;1257;140366;-70
2023/12/05 19:27:21;;;;;;;42.60;21.50;;;;;;;-4.76;84.19;99703.92;218306;1257;140651;-70
2023/12/05 19:32:26;;;;;;;55.80;28.70;;;;;;;-4.74;84.49;99703.79;218892;1254;142689;-69
2023/12/05 19:37:30;;;;;;;50.70;26.70;;;;;;;-4.72;84.53;99707.27;218613;1256;140041;-67
2023/12/05 19:42:36;;;;;;;62.30;31.20;;;;;;;-4.70;84.49;99711.18;218874;1255;140632;-72
2023/12/05 19:47:43;;;;;;;65.20;32.20;;;;;;;-4.67;84.51;99712.01;219698;1257;142252;-68
2023/12/05 19:52:48;;;;;;;57.80;28.50;;;;;;;-4.67;84.60;99710.27;217905;1257;140449;-68
2023/12/05 19:57:52;;;;;;;40.80;23.50;;;;;;;-4.67;84.73;99709.02;218723;1256;140912;-67
2023/12/05 20:02:57;;;;;;;50.90;27.60;;;;;;;-4.66;84.71;99712.25;218199;1257;140351;-71
2023/12/05 20:08:02;;;;;;;58.00;30.90;;;;;;;-4.66;84.72;99710.83;218354;1254;140666;-68
2023/12/05 20:13:09;;;;;;;58.60;28.20;;;;;;;-4.65;84.63;99710.77;218552;1258;140639;-71
2023/12/05 20:18:15;;;;;;;58.70;30.30;;;;;;;-4.63;84.78;99713.32;219945;1256;142275;-71
2023/12/05 20:23:19;;;;;;;61.00;27.30;;;;;;;-4.60;84.84;99707.83;219882;1257;141228;-71
2023/12/05 20:28:27;;;;;;;64.20;30.60;;;;;;;-4.56;84.69;99708.03;219798;1257;142663;-69
2023/12/05 20:33:32;;;;;;;60.40;32.60;;;;;;;-4.53;84.70;99706.36;220428;1257;140528;-69
2023/12/05 20:38:36;;;;;;;52.70;26.70;;;;;;;-4.50;84.46;99712.47;218789;1256;140208;-71
2023/12/05 20:43:43;;;;;;;54.60;30.80;;;;;;;-4.49;84.78;99706.09;218701;1256;140929;-68
2023/12/05 20:48:49;;;;;;;62.20;29.20;;;;;;;-4.47;84.83;99704.73;218445;1259;140195;-74
2023/12/05 20:53:59;;;;;;;65.10;31.30;;;;;;;-4.46;84.67;99705.83;218265;1257;140763;-71
2023/12/05 20:59:08;;;;;;;61.10;30.60;;;;;;;-4.43;84.95;99701.98;218112;1259;141626;-73
2023/12/05 21:04:17;;;;;;;64.20;33.20;;;;;;;-4.39;85.07;99708.21;219770;1254;140267;-69
2023/12/05 21:09:23;;;;;;;58.70;27.20;;;;;;;-4.33;85.24;99709.74;218743;1256;141662;-69
2023/12/05 21:14:28;;;;;;;50.70;25.50;;;;;;;-4.28;85.02;99708.54;218539;1257;142499;-69
2023/12/05 21:19:59;;;;;;;55.50;30.20;;;;;;;-4.22;84.83;99706.14;218515;1258;141921;-71
2023/12/05 21:25:05;;;;;;;65.20;32.40;;;;;;;-4.23;84.84;99705.99;218672;1257;140324;-71
2023/12/05 21:30:11;;;;;;;59.00;32.30;;;;;;;-4.24;84.88;99707.45;218388;1257;140510;-72
2023/12/05 21:35:20;;;;;;;53.10;25.90;;;;;;;-4.21;85.09;99707.25;218618;1258;140446;-70
2023/12/05 21:40:27;;;;;;;81.80;36.60;;;;;;;-4.19;84.89;99709.44;218246;1257;140252;-71
2023/12/05 21:45:33;;;;;;;140.90;53.80;;;;;;;-4.20;84.80;99713.01;218564;1257;140192;-71
2023/12/05 21:50:40;;;;;;;82.00;40.60;;;;;;;-4.22;84.70;99710.40;219015;1254;140665;-74
2023/12/05 21:55:45;;;;;;;66.30;35.60;;;;;;;-4.24;84.79;99716.16;218764;1254;140035;-72
2023/12/05 22:00:51;;;;;;;60.00;33.30;;;;;;;-4.26;84.79;99716.20;218538;1254;141205;-72
2023/12/05 22:05:58;;;;;;;55.00;28.20;;;;;;;-4.27;84.86;99716.09;218708;1257;140427;-73
2023/12/05 22:11:03;;;;;;;63.60;31.10;;;;;;;-4.29;84.64;99717.54;219388;1257;140494;-69
2023/12/05 22:16:09;;;;;;;54.30;27.40;;;;;;;-4.32;84.66;99725.79;219824;1257;141953;-73
2023/12/05 22:21:16;;;;;;;59.40;30.40;;;;;;;-4.33;84.51;99729.57;218726;1257;141396;-71
2023/12/05 22:26:22;;;;;;;53.60;28.60;;;;;;;-4.39;84.57;99738.23;218312;1257;140643;-71
2023/12/05 22:31:30;;;;;;;69.20;31.10;;;;;;;-4.44;84.45;99736.40;219212;1257;140487;-69
2023/12/05 22:36:36;;;;;;;54.00;28.60;;;;;;;-4.44;84.78;99736.17;219017;1257;141157;-71
2023/12/05 22:41:44;;;;;;;71.80;34.80;;;;;;;-4.43;84.72;99736.94;219228;1256;142005;-68
2023/12/05 22:46:50;;;;;;;66.20;31.10;;;;;;;-4.43;84.70;99740.39;218435;1255;140367;-71
2023/12/05 22:51:58;;;;;;;61.60;30.90;;;;;;;-4.40;84.67;99740.54;218111;1257;141065;-72
2023/12/05 22:57:03;;;;;;;64.50;31.80;;;;;;;-4.40;84.54;99744.59;218423;1257;140267;-72
